createdAt,value
2022-08-05T03:08:42.831Z,99168.94
2022-08-05T03:11:55.382Z,99167.72
2022-08-05T03:14:14.362Z,99160.25
2022-08-05T03:16:43.856Z,99150.75
2022-08-05T03:19:20.331Z,99143.84
2022-08-05T03:22:01.756Z,99131.56
2022-08-05T03:24:33.778Z,99130.81
2022-08-05T03:27:04.016Z,99137.28
2022-08-05T03:29:44.729Z,99129.38
2022-08-05T03:32:30.648Z,99145.13
2022-08-05T03:34:59.862Z,99127.06
2022-08-05T03:37:29.864Z,99129.75
2022-08-05T03:40:12.052Z,99126.97
2022-08-05T03:42:52.418Z,99131.25
2022-08-05T03:45:23.555Z,99114.63
2022-08-05T03:47:56.836Z,99119.88
2022-08-05T03:50:26.113Z,99130.84
2022-08-05T03:54:59.318Z,99115.44
2022-08-05T03:56:09.257Z,99127.03
2022-08-05T03:58:42.050Z,99133.56
2022-08-05T04:01:13.691Z,99125.53
2022-08-05T04:04:09.098Z,99102.97
2022-08-05T04:06:31.878Z,99125.13
2022-08-05T04:09:01.799Z,99123.50
2022-08-05T04:11:47.441Z,99111.31
2022-08-05T04:14:29.891Z,99116.00
2022-08-05T04:17:02.910Z,99101.03
2022-08-05T04:19:32.142Z,99091.16
2022-08-05T04:22:09.849Z,99094.63
2022-08-05T04:24:52.311Z,99107.72
2022-08-05T04:27:33.173Z,99089.06
2022-08-05T04:30:11.628Z,99103.38
2022-08-05T04:32:40.634Z,99103.53
2022-08-05T04:35:17.763Z,99091.16
2022-08-05T04:38:02.346Z,99072.72
2022-08-05T04:40:38.576Z,99078.16
2022-08-05T04:43:16.629Z,99076.13
2022-08-05T04:45:48.497Z,99057.09
2022-08-05T04:48:27.216Z,99061.16
2022-08-05T04:51:03.574Z,99052.47
2022-08-05T04:53:40.822Z,99072.91
2022-08-05T04:56:32.957Z,99056.28
2022-08-05T04:59:00.047Z,99044.56
2022-08-05T05:02:35.593Z,99065.41
2022-08-05T05:04:38.298Z,99035.22
2022-08-05T05:07:15.943Z,99039.50
2022-08-05T05:09:46.530Z,99038.09
2022-08-05T05:12:15.568Z,99018.13
2022-08-05T05:14:50.608Z,99039.00
2022-08-05T05:17:24.204Z,99027.25
2022-08-05T05:19:56.797Z,99028.38
2022-08-05T05:22:26.880Z,99044.50
2022-08-05T05:24:59.781Z,99025.84
2022-08-05T05:27:41.762Z,99027.38
2022-08-05T05:30:30.461Z,99009.16
2022-08-05T05:34:01.945Z,99001.81
2022-08-05T05:37:10.151Z,98995.75
2022-08-05T05:40:18.742Z,99008.97
2022-08-05T05:43:56.646Z,98989.53
2022-08-05T05:46:18.839Z,98993.47
2022-08-05T05:49:27.366Z,99017.72
2022-08-05T05:52:38.143Z,98977.50
2022-08-05T05:55:52.531Z,98970.06
2022-08-05T05:59:09.879Z,98957.66
2022-08-05T06:02:32.508Z,98961.81
2022-08-05T06:05:46.163Z,98960.59
2022-08-05T06:09:03.911Z,98942.34
2022-08-05T06:12:12.528Z,98969.47
2022-08-05T06:14:46.013Z,98938.72
2022-08-05T06:17:22.372Z,98956.31
2022-08-05T06:20:04.461Z,98942.38
2022-08-05T06:22:34.458Z,98932.06
2022-08-05T06:25:25.118Z,98950.59
2022-08-05T06:28:12.287Z,98941.03
2022-08-05T06:30:42.110Z,98943.34
2022-08-05T06:33:11.786Z,98953.72
2022-08-05T06:36:07.538Z,98951.03
2022-08-05T06:38:37.220Z,98937.94
2022-08-05T06:41:08.261Z,98943.38
2022-08-05T06:43:58.695Z,98964.97
2022-08-05T06:46:30.129Z,98940.13
2022-08-05T06:49:01.271Z,98933.25
2022-08-05T06:51:30.964Z,98932.47
2022-08-05T06:54:01.922Z,98943.94
2022-08-05T06:56:33.399Z,98953.19
2022-08-05T06:59:09.447Z,98949.50
2022-08-05T07:01:42.327Z,98928.69
2022-08-05T07:04:14.092Z,98951.16
2022-08-05T07:06:45.775Z,98927.81
2022-08-05T07:09:21.492Z,98939.31
2022-08-05T07:11:54.032Z,98958.50
2022-08-05T07:14:41.583Z,98936.34
2022-08-05T07:18:00.930Z,98939.25
2022-08-05T07:22:52.510Z,98917.69
2022-08-05T07:25:22.675Z,98932.72
2022-08-05T07:28:17.205Z,98941.03
2022-08-05T07:30:50.274Z,98964.28
2022-08-05T07:33:35.228Z,98963.78
2022-08-05T07:36:20.397Z,98951.44
2022-08-05T07:40:04.591Z,98950.25
2022-08-05T07:42:58.404Z,98965.75
2022-08-05T07:46:20.757Z,98965.44
2022-08-05T07:49:33.316Z,98971.97
2022-08-05T07:52:52.007Z,98971.28
2022-08-05T07:56:05.426Z,98979.94
2022-08-05T07:59:14.430Z,98979.16
2022-08-05T08:02:22.827Z,98991.47
2022-08-05T08:05:39.453Z,98987.66
2022-08-05T08:08:48.208Z,98990.50
2022-08-05T08:12:00.129Z,98994.91
2022-08-05T08:15:15.167Z,98987.38
2022-08-05T08:18:25.468Z,98994.34
2022-08-05T08:21:34.982Z,98986.25
2022-08-05T08:24:51.498Z,98986.41
2022-08-05T08:28:00.520Z,98982.03
2022-08-05T08:31:09.044Z,98988.09
2022-08-05T08:34:18.770Z,98977.94
2022-08-05T08:37:28.062Z,98969.50
2022-08-05T08:40:36.650Z,98975.69
2022-08-05T08:45:24.434Z,98969.78
2022-08-05T08:47:47.668Z,98963.31
2022-08-05T08:51:04.209Z,98950.72
2022-08-05T08:54:10.233Z,98954.91
2022-08-05T08:57:22.688Z,98953.72
2022-08-05T09:00:31.126Z,98957.34
2022-08-05T09:03:44.979Z,98950.72
2022-08-05T09:06:53.836Z,98961.63
2022-08-05T09:10:04.135Z,98967.31
2022-08-05T09:13:13.758Z,98957.69
